Time;durP1;ratioP1;P1;durP2;ratioP2;P2;SDS_P1;SDS_P2;PMS_P1;PMS_P2;Temp;Humidity;BMP_temperature;BMP_pressure;BME280_temperature;BME280_humidity;BME280_pressure;Samples;Min_cycle;Max_cycle;Signal;HPM_P1;HPM_P2
2023/10/20 00:00:44;;;;;;;19.37;10.70;;;;;14.50;98245.00;;;;5014965;28;20257;-73
2023/10/20 00:03:32;;;;;;;18.97;9.97;;;;;14.40;98234.00;;;;5041181;28;20240;-72
2023/10/20 00:06:18;;;;;;;17.57;10.27;;;;;14.40;98230.00;;;;5028134;28;20264;-72
2023/10/20 00:09:05;;;;;;;16.40;10.47;;;;;14.40;98220.00;;;;5027287;28;20235;-71
2023/10/20 00:11:52;;;;;;;17.57;9.97;;;;;14.40;98222.00;;;;5028047;28;20235;-72
2023/10/20 00:14:38;;;;;;;20.67;10.10;;;;;14.30;98207.00;;;;5028198;28;20729;-70
2023/10/20 00:17:25;;;;;;;16.73;10.30;;;;;14.40;98210.00;;;;5033242;28;20233;-71
2023/10/20 00:20:13;;;;;;;18.63;11.20;;;;;14.30;98210.00;;;;5039458;28;20742;-73
2023/10/20 00:22:59;;;;;;;20.73;10.77;;;;;14.30;98202.00;;;;5029018;28;20731;-71
2023/10/20 00:25:45;;;;;;;17.87;10.23;;;;;14.30;98194.00;;;;5019806;28;20251;-71
2023/10/20 00:28:32;;;;;;;21.93;11.03;;;;;14.30;98196.00;;;;5019028;28;20797;-72
2023/10/20 00:31:18;;;;;;;18.27;10.83;;;;;14.30;98188.00;;;;5022417;28;20997;-73
2023/10/20 00:34:05;;;;;;;24.07;11.90;;;;;14.30;98184.00;;;;5027392;28;20239;-72
2023/10/20 00:36:53;;;;;;;20.50;12.03;;;;;14.30;98193.00;;;;5016257;28;20278;-71
2023/10/20 00:39:39;;;;;;;19.33;11.33;;;;;14.30;98189.00;;;;5026874;28;20748;-71
2023/10/20 00:42:25;;;;;;;21.43;11.70;;;;;14.30;98181.00;;;;5021234;28;20687;-70
2023/10/20 00:45:12;;;;;;;23.83;12.30;;;;;14.30;98193.00;;;;5046860;28;20231;-71
2023/10/20 00:47:59;;;;;;;26.20;11.87;;;;;14.30;98186.00;;;;5035715;28;20276;-71
2023/10/20 00:50:45;;;;;;;25.10;11.17;;;;;14.30;98176.00;;;;5041301;28;20235;-72
2023/10/20 00:53:35;;;;;;;22.10;11.10;;;;;14.30;98183.00;;;;5041049;28;20234;-72
2023/10/20 00:56:22;;;;;;;23.93;11.77;;;;;14.30;98174.00;;;;5038649;28;20234;-71
2023/10/20 00:59:08;;;;;;;21.57;11.40;;;;;14.30;98175.00;;;;5043277;28;20230;-73
2023/10/20 01:01:55;;;;;;;20.40;11.63;;;;;14.30;98158.00;;;;5048725;28;20271;-72
2023/10/20 01:04:41;;;;;;;21.23;11.30;;;;;14.30;98164.00;;;;5041465;28;20251;-72
2023/10/20 01:07:27;;;;;;;23.37;11.50;;;;;14.30;98156.00;;;;5050407;28;21428;-72
2023/10/20 01:10:15;;;;;;;19.43;11.63;;;;;14.40;98145.00;;;;5044550;28;20279;-70
2023/10/20 01:13:02;;;;;;;20.73;11.63;;;;;14.30;98136.00;;;;5043722;28;20270;-72
2023/10/20 01:15:49;;;;;;;28.07;12.23;;;;;14.30;98125.00;;;;5045422;28;20282;-72
2023/10/20 01:18:35;;;;;;;25.63;11.70;;;;;14.30;98119.00;;;;5039615;28;20358;-72
2023/10/20 01:21:21;;;;;;;20.10;11.90;;;;;14.30;98114.00;;;;5043247;28;20261;-72
2023/10/20 01:24:10;;;;;;;20.47;11.00;;;;;14.30;98106.00;;;;5026466;28;20715;-72
2023/10/20 01:26:56;;;;;;;22.00;12.03;;;;;14.30;98108.00;;;;5048923;28;20854;-70
2023/10/20 01:29:42;;;;;;;26.67;12.23;;;;;14.30;98107.00;;;;5029035;28;20259;-71
2023/10/20 01:32:28;;;;;;;18.77;12.23;;;;;14.30;98114.00;;;;5031413;28;20239;-72
2023/10/20 01:35:15;;;;;;;20.43;11.80;;;;;14.40;98102.00;;;;5044682;28;20232;-75
2023/10/20 01:38:03;;;;;;;22.20;11.63;;;;;14.40;98096.00;;;;5046262;28;20297;-71
2023/10/20 01:40:51;;;;;;;21.07;12.10;;;;;14.40;98086.00;;;;5046556;28;20234;-73
2023/10/20 01:43:37;;;;;;;22.50;12.00;;;;;14.40;98093.00;;;;5046998;28;20252;-71
2023/10/20 01:46:24;;;;;;;20.53;13.17;;;;;14.40;98081.00;;;;5046338;28;20918;-72
2023/10/20 01:49:10;;;;;;;21.17;12.03;;;;;14.40;98082.00;;;;5052820;28;20255;-72
2023/10/20 01:51:56;;;;;;;20.30;12.37;;;;;14.40;98065.00;;;;5045832;28;20300;-73
2023/10/20 01:54:43;;;;;;;22.57;11.67;;;;;14.50;98052.00;;;;5038503;28;20375;-71
2023/10/20 01:57:30;;;;;;;23.20;13.33;;;;;14.50;98048.00;;;;5045538;28;20311;-71
2023/10/20 02:00:17;;;;;;;23.60;12.97;;;;;14.50;98047.00;;;;5045757;28;20224;-71
2023/10/20 02:03:04;;;;;;;21.43;12.23;;;;;14.40;98044.00;;;;5054113;28;20228;-72
2023/10/20 02:05:51;;;;;;;19.53;12.77;;;;;14.50;98043.00;;;;5042633;28;20615;-71
2023/10/20 02:08:39;;;;;;;23.90;12.87;;;;;14.50;98042.00;;;;5041511;28;20286;-71
2023/10/20 02:11:25;;;;;;;21.80;12.70;;;;;14.50;98057.00;;;;5048552;28;20230;-71
2023/10/20 02:14:13;;;;;;;24.83;12.27;;;;;14.50;98043.00;;;;5042896;28;20298;-71
2023/10/20 02:16:59;;;;;;;22.77;12.73;;;;;14.50;98029.00;;;;5034113;28;20266;-69
2023/10/20 02:19:46;;;;;;;23.03;12.97;;;;;14.50;98024.00;;;;5037833;28;20252;-71
2023/10/20 02:22:32;;;;;;;26.47;12.87;;;;;14.50;98025.00;;;;5031908;28;20227;-71
2023/10/20 02:25:20;;;;;;;20.90;12.47;;;;;14.50;98023.00;;;;5045002;28;20241;-73
2023/10/20 02:28:07;;;;;;;23.50;12.90;;;;;14.50;98015.00;;;;5030774;28;20270;-73
2023/10/20 02:30:56;;;;;;;22.80;13.07;;;;;14.50;98000.00;;;;5038815;28;20321;-71
2023/10/20 02:33:43;;;;;;;23.53;13.30;;;;;14.50;98000.00;;;;5037068;28;20247;-75
2023/10/20 02:36:30;;;;;;;23.93;13.77;;;;;14.50;97986.00;;;;5042332;28;20234;-73
2023/10/20 02:39:17;;;;;;;24.70;13.83;;;;;14.50;97986.00;;;;5036702;28;20308;-73
2023/10/20 02:42:03;;;;;;;26.73;13.63;;;;;14.60;97996.00;;;;5037266;28;20229;-71
2023/10/20 02:44:49;;;;;;;23.90;12.93;;;;;14.50;97980.00;;;;5035957;28;20296;-69
2023/10/20 02:47:37;;;;;;;25.97;13.43;;;;;14.50;97977.00;;;;5037378;28;20768;-72
2023/10/20 02:50:23;;;;;;;27.70;14.60;;;;;14.50;97971.00;;;;5042807;28;20321;-73
2023/10/20 02:53:09;;;;;;;26.23;14.57;;;;;14.50;97962.00;;;;5042068;28;20308;-72
2023/10/20 02:55:56;;;;;;;22.70;13.83;;;;;14.50;97955.00;;;;5039330;28;20239;-70
2023/10/20 02:58:44;;;;;;;27.37;14.97;;;;;14.50;97959.00;;;;5042991;28;20233;-71
2023/10/20 03:01:30;;;;;;;24.03;13.63;;;;;14.50;97949.00;;;;5036770;28;20690;-73
2023/10/20 03:04:19;;;;;;;25.70;14.37;;;;;14.50;97947.00;;;;5038450;28;20227;-73
2023/10/20 03:07:06;;;;;;;21.70;13.27;;;;;14.50;97944.00;;;;5033219;28;20280;-71
2023/10/20 03:09:53;;;;;;;27.60;15.20;;;;;14.50;97943.00;;;;5045657;28;20282;-73
2023/10/20 03:12:39;;;;;;;25.47;13.90;;;;;14.50;97933.00;;;;5031608;28;20665;-73
2023/10/20 03:15:25;;;;;;;27.80;14.93;;;;;14.50;97922.00;;;;5043619;28;20224;-72
2023/10/20 03:18:14;;;;;;;26.33;14.73;;;;;14.50;97909.00;;;;5042707;28;20233;-71
2023/10/20 03:21:02;;;;;;;29.13;14.80;;;;;14.50;97901.00;;;;5044090;28;20233;-70
2023/10/20 03:23:48;;;;;;;27.93;15.00;;;;;14.50;97904.00;;;;5041306;28;20272;-72
2023/10/20 03:26:34;;;;;;;30.13;15.90;;;;;14.50;97908.00;;;;5042822;28;20874;-72
2023/10/20 03:29:20;;;;;;;27.13;15.00;;;;;14.50;97889.00;;;;5041985;28;20736;-71
2023/10/20 03:32:07;;;;;;;25.93;14.80;;;;;14.50;97882.00;;;;5047321;28;20224;-71
2023/10/20 03:34:54;;;;;;;25.30;15.03;;;;;14.50;97881.00;;;;5024399;28;20236;-73
2023/10/20 03:37:42;;;;;;;28.00;15.73;;;;;14.60;97867.00;;;;5021599;28;20226;-70
2023/10/20 03:40:36;;;;;;;29.07;15.73;;;;;14.50;97862.00;;;;5042427;28;20233;-73
2023/10/20 03:43:24;;;;;;;29.33;15.73;;;;;14.50;97868.00;;;;5028066;28;20229;-71
2023/10/20 03:46:13;;;;;;;30.73;16.67;;;;;14.50;97866.00;;;;5040429;28;20282;-71
2023/10/20 03:49:04;;;;;;;31.97;16.83;;;;;14.60;97858.00;;;;5047371;28;20305;-72
2023/10/20 03:51:51;;;;;;;30.83;16.33;;;;;14.60;97859.00;;;;5041707;28;20231;-71
2023/10/20 03:54:39;;;;;;;30.53;15.73;;;;;14.60;97864.00;;;;5048040;28;20218;-71
2023/10/20 03:57:26;;;;;;;30.10;16.77;;;;;14.60;97860.00;;;;5034706;28;20264;-72
2023/10/20 04:00:27;;;;;;;31.13;16.70;;;;;14.60;97860.00;;;;5038770;28;20596;-71
2023/10/20 04:03:13;;;;;;;31.33;16.73;;;;;14.50;97857.00;;;;5038897;28;20240;-72
2023/10/20 04:06:00;;;;;;;30.20;17.17;;;;;14.50;97849.00;;;;5038344;28;20353;-71
2023/10/20 04:08:46;;;;;;;30.73;17.53;;;;;14.50;97840.00;;;;5034985;28;20278;-71
2023/10/20 04:11:35;;;;;;;36.33;18.63;;;;;14.40;97846.00;;;;5036114;28;20363;-71
2023/10/20 04:14:21;;;;;;;33.67;18.80;;;;;14.50;97842.00;;;;5039239;28;20303;-73
2023/10/20 04:17:08;;;;;;;36.60;19.03;;;;;14.50;97844.00;;;;5043390;28;20309;-70
2023/10/20 04:19:54;;;;;;;31.47;17.83;;;;;14.40;97823.00;;;;5036148;28;20240;-72
2023/10/20 04:22:41;;;;;;;35.73;19.20;;;;;14.30;97811.00;;;;5039897;28;20232;-72
2023/10/20 04:25:33;;;;;;;38.70;18.80;;;;;14.30;97809.00;;;;5037474;28;20251;-71
2023/10/20 04:28:28;;;;;;;34.43;18.57;;;;;14.30;97804.00;;;;5043568;28;20608;-71
2023/10/20 04:43:41;;;;;;;36.63;18.33;;;;;14.20;97787.00;;;;5034031;28;20227;-72
2023/10/20 04:58:49;;;;;;;31.50;16.57;;;;;14.20;97760.00;;;;5032732;28;20374;-70
2023/10/20 05:01:43;;;;;;;36.47;17.07;;;;;14.10;97729.00;;;;5032142;28;20311;-71
2023/10/20 05:04:36;;;;;;;34.37;18.00;;;;;14.10;97709.00;;;;5042444;28;20252;-71
2023/10/20 05:07:27;;;;;;;31.27;17.10;;;;;14.10;97709.00;;;;5008086;28;20246;-73
2023/10/20 05:10:13;;;;;;;35.60;18.17;;;;;14.10;97694.00;;;;5021036;28;20234;-70
2023/10/20 05:13:00;;;;;;;29.70;16.63;;;;;14.10;97697.00;;;;5013474;28;20758;-72
2023/10/20 05:15:48;;;;;;;31.07;16.93;;;;;14.10;97689.00;;;;5016540;28;20229;-72
2023/10/20 05:18:34;;;;;;;32.60;16.63;;;;;14.00;97686.00;;;;5019866;28;20245;-71
2023/10/20 05:21:21;;;;;;;33.47;17.33;;;;;14.10;97677.00;;;;5024931;28;20234;-71
2023/10/20 05:24:08;;;;;;;32.80;16.87;;;;;14.00;97675.00;;;;5025070;28;20245;-72
2023/10/20 05:26:54;;;;;;;32.17;16.60;;;;;14.00;97667.00;;;;5025843;28;20305;-72
2023/10/20 05:29:40;;;;;;;33.77;16.93;;;;;14.00;97665.00;;;;5027154;28;20308;-71
2023/10/20 05:32:31;;;;;;;29.53;16.30;;;;;14.00;97663.00;;;;5026066;28;20229;-72
2023/10/20 05:35:17;;;;;;;31.07;16.20;;;;;14.00;97661.00;;;;5021122;28;20289;-70
2023/10/20 05:38:03;;;;;;;33.53;16.27;;;;;14.00;97655.00;;;;5024213;28;20221;-71
2023/10/20 05:40:58;;;;;;;30.87;16.10;;;;;14.00;97657.00;;;;5026039;28;20604;-71
2023/10/20 05:43:44;;;;;;;31.10;15.23;;;;;13.90;97646.00;;;;5024961;28;20225;-73
2023/10/20 05:46:30;;;;;;;24.10;13.63;;;;;13.90;97638.00;;;;5031626;28;20410;-71
2023/10/20 05:49:18;;;;;;;25.43;13.67;;;;;13.80;97644.00;;;;5029244;28;20223;-70
2023/10/20 05:52:05;;;;;;;25.17;13.00;;;;;13.80;97656.00;;;;5041712;28;20344;-72
2023/10/20 05:54:53;;;;;;;23.10;12.77;;;;;13.80;97636.00;;;;5053260;28;20866;-72
2023/10/20 05:57:39;;;;;;;22.20;12.23;;;;;13.80;97639.00;;;;5026793;28;21011;-72
2023/10/20 06:00:26;;;;;;;21.57;11.63;;;;;13.70;97636.00;;;;5030262;28;20714;-72
2023/10/20 06:03:12;;;;;;;21.27;11.13;;;;;13.70;97626.00;;;;5028456;28;20581;-73
2023/10/20 06:06:01;;;;;;;18.23;10.83;;;;;13.60;97620.00;;;;5054189;28;20232;-72
2023/10/20 06:08:49;;;;;;;19.83;10.57;;;;;13.70;97637.00;;;;5050572;28;20596;-71
2023/10/20 06:11:39;;;;;;;20.47;10.23;;;;;13.70;97637.00;;;;5022063;28;20248;-72
2023/10/20 06:14:25;;;;;;;18.47;10.63;;;;;13.70;97647.00;;;;5022978;28;20237;-71
2023/10/20 06:17:12;;;;;;;17.50;9.83;;;;;13.60;97649.00;;;;5019169;28;20617;-71
2023/10/20 06:19:59;;;;;;;15.60;9.30;;;;;13.60;97645.00;;;;5032251;28;20737;-73
2023/10/20 06:22:47;;;;;;;16.53;8.67;;;;;13.70;97637.00;;;;5040182;28;20242;-72
2023/10/20 06:25:36;;;;;;;17.57;8.30;;;;;13.40;97639.00;;;;5031950;28;20356;-72
2023/10/20 06:28:23;;;;;;;16.33;9.00;;;;;13.50;97642.00;;;;5035639;28;20234;-72
2023/10/20 06:34:16;;;;;;;15.33;8.30;;;;;13.50;97641.00;;;;5045663;27;20595;-72
2023/10/20 06:37:08;;;;;;;15.40;8.00;;;;;13.50;97630.00;;;;5051377;28;20313;-71
2023/10/20 06:39:54;;;;;;;15.73;8.50;;;;;13.50;97629.00;;;;5054110;28;20302;-70
2023/10/20 06:42:40;;;;;;;13.83;8.30;;;;;13.40;97635.00;;;;5060714;28;20366;-74
2023/10/20 06:45:26;;;;;;;13.43;8.07;;;;;13.40;97636.00;;;;5058843;28;20228;-73
2023/10/20 06:48:14;;;;;;;14.73;8.50;;;;;13.40;97631.00;;;;5054602;28;20237;-73
2023/10/20 06:51:01;;;;;;;13.47;7.80;;;;;13.40;97621.00;;;;5051204;28;20243;-72
2023/10/20 06:53:48;;;;;;;12.47;7.50;;;;;13.30;97624.00;;;;5052271;28;20319;-73
2023/10/20 06:56:34;;;;;;;14.10;8.33;;;;;13.20;97621.00;;;;5061028;28;20378;-74
2023/10/20 06:59:20;;;;;;;12.07;7.77;;;;;13.20;97622.00;;;;5055167;28;20236;-73
2023/10/20 07:02:07;;;;;;;14.03;7.33;;;;;13.20;97623.00;;;;5059431;28;20302;-70
2023/10/20 07:04:53;;;;;;;13.67;7.73;;;;;13.10;97624.00;;;;5055181;28;20563;-70
2023/10/20 07:07:41;;;;;;;11.60;7.57;;;;;13.10;97620.00;;;;5050039;28;20236;-72
2023/10/20 07:10:28;;;;;;;12.27;7.90;;;;;13.10;97616.00;;;;5051238;28;20299;-71
2023/10/20 07:13:14;;;;;;;12.00;7.87;;;;;13.00;97600.00;;;;5053845;28;20259;-71
2023/10/20 07:16:01;;;;;;;11.80;7.47;;;;;13.00;97593.00;;;;5056128;28;20605;-70
2023/10/20 07:18:47;;;;;;;12.10;7.27;;;;;13.00;97611.00;;;;5057020;28;20229;-71
2023/10/20 07:21:35;;;;;;;11.37;7.40;;;;;12.90;97605.00;;;;5053943;28;20229;-70
2023/10/20 07:24:23;;;;;;;13.20;7.50;;;;;12.90;97612.00;;;;5061617;28;20740;-71
2023/10/20 07:27:10;;;;;;;13.93;7.43;;;;;12.90;97597.00;;;;5052815;28;20232;-70
2023/10/20 07:29:57;;;;;;;11.43;6.77;;;;;12.80;97589.00;;;;5055407;28;20234;-71
2023/10/20 07:32:43;;;;;;;11.13;6.63;;;;;12.80;97601.00;;;;5059202;28;20235;-72
2023/10/20 07:35:30;;;;;;;11.50;7.23;;;;;12.70;97590.00;;;;5053503;28;20346;-72
2023/10/20 07:38:18;;;;;;;9.67;6.20;;;;;12.70;97599.00;;;;5034858;28;20225;-69
2023/10/20 07:41:09;;;;;;;9.07;6.10;;;;;12.70;97592.00;;;;5033161;28;20241;-72
2023/10/20 07:43:58;;;;;;;9.77;6.50;;;;;12.60;97585.00;;;;5032694;28;20231;-71
2023/10/20 07:46:47;;;;;;;8.77;5.77;;;;;12.50;97596.00;;;;5022157;28;20276;-70
2023/10/20 07:49:34;;;;;;;10.63;6.37;;;;;12.60;97603.00;;;;5022353;28;20765;-70
2023/10/20 07:52:20;;;;;;;9.07;5.87;;;;;12.60;97593.00;;;;5020315;28;20250;-69
2023/10/20 07:55:08;;;;;;;6.77;5.27;;;;;12.60;97586.00;;;;5020548;28;20848;-70
2023/10/20 07:57:56;;;;;;;8.90;5.60;;;;;12.60;97585.00;;;;5025116;28;20361;-72
2023/10/20 08:00:42;;;;;;;6.13;4.60;;;;;12.50;97582.00;;;;5029655;28;20854;-71
2023/10/20 08:03:28;;;;;;;7.77;5.20;;;;;12.40;97578.00;;;;5042360;28;20236;-71
2023/10/20 08:06:15;;;;;;;9.03;5.23;;;;;12.30;97565.00;;;;5020573;28;20230;-70
2023/10/20 08:09:02;;;;;;;6.90;4.83;;;;;12.30;97569.00;;;;5025964;28;22037;-70
2023/10/20 08:11:48;;;;;;;9.63;5.47;;;;;12.40;97564.00;;;;5045133;28;20232;-72
2023/10/20 08:14:36;;;;;;;8.57;5.10;;;;;12.30;97566.00;;;;5039136;28;20240;-69
2023/10/20 08:17:22;;;;;;;6.20;4.23;;;;;12.30;97572.00;;;;5020141;28;20322;-70
2023/10/20 08:20:10;;;;;;;4.90;3.87;;;;;12.10;97574.00;;;;5019214;28;20367;-69
2023/10/20 08:22:56;;;;;;;6.70;3.97;;;;;12.00;97574.00;;;;5015562;28;20749;-69
2023/10/20 08:25:42;;;;;;;5.73;4.20;;;;;12.10;97569.00;;;;5026475;28;20237;-69
2023/10/20 08:28:28;;;;;;;6.67;4.27;;;;;12.10;97572.00;;;;5037023;28;20217;-72
2023/10/20 08:31:17;;;;;;;5.60;4.13;;;;;12.10;97568.00;;;;5011636;28;20617;-70
2023/10/20 08:34:04;;;;;;;5.03;3.67;;;;;12.10;97562.00;;;;5019976;28;20254;-71
2023/10/20 08:36:50;;;;;;;5.27;3.87;;;;;12.10;97566.00;;;;5011519;28;20316;-70
2023/10/20 08:39:36;;;;;;;5.57;3.80;;;;;12.10;97572.00;;;;5034308;28;20233;-71
2023/10/20 08:42:22;;;;;;;4.50;3.37;;;;;12.10;97572.00;;;;5016246;28;20224;-69
2023/10/20 08:45:12;;;;;;;5.57;3.90;;;;;12.10;97575.00;;;;5010986;28;20220;-70
2023/10/20 08:48:02;;;;;;;6.07;4.53;;;;;12.20;97577.00;;;;5039093;28;20241;-71
2023/10/20 08:50:50;;;;;;;6.03;4.00;;;;;12.10;97584.00;;;;5032814;28;20232;-70
2023/10/20 08:53:37;;;;;;;4.57;3.57;;;;;12.10;97582.00;;;;5027599;28;20237;-71
2023/10/20 08:56:24;;;;;;;4.53;3.53;;;;;12.20;97580.00;;;;5014985;28;20295;-69
2023/10/20 08:59:10;;;;;;;5.10;3.47;;;;;12.20;97571.00;;;;5043737;28;20294;-73
2023/10/20 09:01:57;;;;;;;3.63;3.23;;;;;12.10;97565.00;;;;5034270;28;20252;-70
2023/10/20 09:04:50;;;;;;;3.80;3.40;;;;;12.10;97582.00;;;;5030341;28;20228;-70
2023/10/20 09:07:36;;;;;;;6.50;3.33;;;;;12.10;97582.00;;;;5017884;28;20241;-70
2023/10/20 09:10:24;;;;;;;3.67;2.93;;;;;12.10;97586.00;;;;5023474;28;20679;-70
2023/10/20 09:13:11;;;;;;;3.67;3.10;;;;;12.10;97573.00;;;;5040728;28;20342;-71
2023/10/20 09:15:58;;;;;;;3.60;3.10;;;;;12.10;97584.00;;;;5042890;28;20264;-70
2023/10/20 09:18:46;;;;;;;3.10;2.70;;;;;12.00;97564.00;;;;5019302;28;20221;-71
2023/10/20 09:21:34;;;;;;;3.87;2.80;;;;;12.10;97582.00;;;;5024189;28;20229;-70
2023/10/20 09:24:20;;;;;;;3.13;2.83;;;;;12.00;97575.00;;;;5024024;28;20222;-70
2023/10/20 09:27:08;;;;;;;3.10;2.80;;;;;12.00;97577.00;;;;5044095;28;20306;-68
2023/10/20 09:29:56;;;;;;;2.93;2.50;;;;;12.00;97578.00;;;;5036426;28;20232;-70
2023/10/20 09:32:42;;;;;;;3.93;2.60;;;;;12.00;97585.00;;;;5018432;28;20229;-70
2023/10/20 09:35:30;;;;;;;5.60;3.10;;;;;12.10;97582.00;;;;5021005;28;20237;-70
2023/10/20 09:38:25;;;;;;;3.63;2.80;;;;;12.20;97581.00;;;;5024137;28;20327;-70
2023/10/20 09:41:13;;;;;;;4.03;2.60;;;;;12.10;97578.00;;;;5016768;28;20289;-71
2023/10/20 09:44:05;;;;;;;3.63;2.87;;;;;12.00;97573.00;;;;5023636;28;20445;-70
2023/10/20 09:46:55;;;;;;;3.37;2.60;;;;;11.90;97584.00;;;;5018150;28;20236;-72
2023/10/20 09:49:42;;;;;;;2.90;2.57;;;;;11.90;97583.00;;;;5019102;28;20384;-72
2023/10/20 09:52:29;;;;;;;3.27;2.43;;;;;12.00;97584.00;;;;5013730;28;20226;-72
2023/10/20 09:55:20;;;;;;;2.90;2.60;;;;;12.00;97582.00;;;;5022780;28;20550;-70
2023/10/20 09:58:06;;;;;;;3.93;2.90;;;;;12.10;97576.00;;;;5021864;28;20941;-71
2023/10/20 10:00:55;;;;;;;3.57;2.80;;;;;12.00;97574.00;;;;5020973;28;20791;-71
2023/10/20 10:03:48;;;;;;;5.23;2.80;;;;;12.00;97576.00;;;;5017365;28;20241;-70
2023/10/20 10:06:36;;;;;;;4.30;3.07;;;;;12.00;97574.00;;;;5014980;28;20308;-70
2023/10/20 10:09:23;;;;;;;3.83;3.00;;;;;12.00;97575.00;;;;5015968;28;20233;-69
2023/10/20 10:12:14;;;;;;;3.83;2.53;;;;;11.90;97566.00;;;;5023252;28;20299;-70
2023/10/20 10:15:05;;;;;;;2.70;2.50;;;;;12.00;97573.00;;;;5020977;28;20256;-72
2023/10/20 10:17:54;;;;;;;3.53;2.80;;;;;12.00;97571.00;;;;5020340;28;20276;-72
2023/10/20 10:20:42;;;;;;;2.67;2.30;;;;;11.90;97564.00;;;;5009053;28;20610;-70
2023/10/20 10:23:29;;;;;;;3.10;2.43;;;;;11.90;97558.00;;;;5019483;28;20229;-71
2023/10/20 10:26:18;;;;;;;5.00;2.43;;;;;11.90;97563.00;;;;5020595;28;20261;-74
2023/10/20 10:29:08;;;;;;;5.93;2.50;;;;;11.90;97566.00;;;;5021645;28;20709;-70
2023/10/20 10:31:55;;;;;;;2.50;2.30;;;;;11.90;97560.00;;;;5016498;28;20260;-68
2023/10/20 10:34:55;;;;;;;3.90;2.70;;;;;11.80;97562.00;;;;5021221;28;20241;-71
2023/10/20 10:37:44;;;;;;;2.73;2.13;;;;;11.80;97566.00;;;;5008358;28;20324;-71
2023/10/20 10:40:31;;;;;;;2.70;2.30;;;;;11.90;97561.00;;;;5023345;28;20240;-70
2023/10/20 10:43:21;;;;;;;4.97;2.77;;;;;11.90;97553.00;;;;5020979;28;20321;-70
2023/10/20 10:46:08;;;;;;;3.33;2.50;;;;;11.90;97544.00;;;;5039202;28;20233;-72
2023/10/20 10:49:05;;;;;;;3.20;2.90;;;;;12.00;97540.00;;;;5042555;28;20256;-71
2023/10/20 10:51:52;;;;;;;2.83;2.53;;;;;12.00;97525.00;;;;5037166;28;20240;-68
2023/10/20 10:54:39;;;;;;;2.80;2.60;;;;;12.10;97527.00;;;;5019452;28;20311;-72
2023/10/20 10:57:25;;;;;;;4.87;2.57;;;;;12.10;97512.00;;;;5024651;28;20232;-72
2023/10/20 11:00:15;;;;;;;5.47;2.57;;;;;11.90;97497.00;;;;5019822;28;20309;-70
2023/10/20 11:03:04;;;;;;;3.87;2.40;;;;;12.00;97488.00;;;;5023100;28;20315;-70
2023/10/20 11:05:52;;;;;;;3.93;3.27;;;;;12.00;97484.00;;;;5016144;28;20245;-71
2023/10/20 11:08:44;;;;;;;4.70;3.23;;;;;12.00;97492.00;;;;5016992;28;20233;-70
2023/10/20 11:11:31;;;;;;;3.27;2.83;;;;;12.00;97495.00;;;;5003104;28;20233;-71
2023/10/20 11:14:19;;;;;;;3.10;2.80;;;;;12.00;97490.00;;;;5015077;28;20230;-70
2023/10/20 11:17:08;;;;;;;4.47;3.27;;;;;12.00;97492.00;;;;5015204;28;20904;-70
2023/10/20 11:19:56;;;;;;;3.57;3.00;;;;;12.00;97474.00;;;;5021321;28;20340;-70
2023/10/20 11:22:43;;;;;;;2.97;2.57;;;;;12.10;97477.00;;;;5024246;28;20539;-71
2023/10/20 11:25:29;;;;;;;3.77;3.10;;;;;12.10;97481.00;;;;5014958;28;20285;-70
2023/10/20 11:28:16;;;;;;;4.17;3.10;;;;;12.10;97473.00;;;;5017238;28;20229;-70
2023/10/20 11:31:02;;;;;;;4.37;3.47;;;;;12.10;97471.00;;;;5030925;28;20233;-71
2023/10/20 11:33:49;;;;;;;7.87;3.87;;;;;12.10;97459.00;;;;5024238;28;20303;-70
2023/10/20 11:36:37;;;;;;;3.73;3.20;;;;;12.00;97467.00;;;;5022423;28;20237;-69
2023/10/20 11:39:27;;;;;;;5.27;3.40;;;;;12.00;97465.00;;;;5024660;28;20797;-71
2023/10/20 11:42:13;;;;;;;3.60;3.00;;;;;12.00;97454.00;;;;5028026;28;20225;-71
2023/10/20 11:45:01;;;;;;;4.00;3.33;;;;;12.00;97446.00;;;;5026451;28;20224;-72
2023/10/20 11:47:47;;;;;;;3.23;2.93;;;;;11.90;97435.00;;;;5023664;28;20284;-72
2023/10/20 11:50:34;;;;;;;3.23;2.93;;;;;12.00;97434.00;;;;5025075;28;20706;-71
2023/10/20 11:53:22;;;;;;;3.17;2.80;;;;;11.90;97432.00;;;;5027707;28;20236;-71
2023/10/20 11:56:08;;;;;;;3.00;2.70;;;;;11.90;97436.00;;;;5027043;28;20234;-71
2023/10/20 11:58:54;;;;;;;4.57;3.20;;;;;11.80;97433.00;;;;5025728;28;20209;-71
2023/10/20 12:01:40;;;;;;;2.77;2.53;;;;;11.90;97433.00;;;;5020944;28;20217;-70
2023/10/20 12:04:26;;;;;;;4.80;3.13;;;;;11.70;97444.00;;;;5028101;28;20230;-70
2023/10/20 12:07:12;;;;;;;3.07;2.77;;;;;11.70;97435.00;;;;5024833;28;20677;-71
2023/10/20 12:10:00;;;;;;;3.80;3.30;;;;;11.70;97423.00;;;;5020857;28;20206;-71
2023/10/20 12:12:47;;;;;;;3.07;2.80;;;;;11.70;97414.00;;;;5021930;28;20586;-69
2023/10/20 12:15:33;;;;;;;3.87;3.03;;;;;11.60;97416.00;;;;5022744;28;20249;-71
2023/10/20 12:18:19;;;;;;;3.30;2.97;;;;;11.70;97407.00;;;;5020982;28;20644;-70
2023/10/20 12:21:07;;;;;;;3.10;2.80;;;;;11.70;97411.00;;;;5026686;28;20295;-72
2023/10/20 12:23:54;;;;;;;3.33;2.80;;;;;11.70;97396.00;;;;5019077;28;20349;-69
2023/10/20 12:26:42;;;;;;;4.20;2.70;;;;;11.70;97392.00;;;;5019507;28;20763;-70
2023/10/20 12:29:28;;;;;;;6.03;3.13;;;;;11.70;97395.00;;;;5025726;28;20213;-69
2023/10/20 12:32:14;;;;;;;2.70;2.50;;;;;11.70;97396.00;;;;5023921;28;20710;-69
2023/10/20 12:35:00;;;;;;;2.97;2.43;;;;;11.60;97406.00;;;;5019554;28;20230;-70
2023/10/20 12:37:47;;;;;;;3.60;2.90;;;;;11.70;97403.00;;;;5020888;28;20234;-70
2023/10/20 12:40:34;;;;;;;3.20;2.90;;;;;11.60;97395.00;;;;5023262;28;20344;-69
2023/10/20 12:43:21;;;;;;;3.80;2.83;;;;;11.60;97396.00;;;;5020905;28;20293;-69
2023/10/20 12:46:08;;;;;;;3.07;2.77;;;;;11.70;97398.00;;;;5020060;28;20238;-72
2023/10/20 12:48:55;;;;;;;2.80;2.60;;;;;11.60;97387.00;;;;5022990;28;20201;-69
2023/10/20 12:51:41;;;;;;;4.17;3.03;;;;;11.70;97375.00;;;;5019766;28;20217;-69
2023/10/20 12:54:28;;;;;;;4.87;3.87;;;;;11.60;97371.00;;;;5024442;28;21023;-70
2023/10/20 12:57:14;;;;;;;4.60;3.57;;;;;11.60;97365.00;;;;5026170;28;20741;-71
2023/10/20 13:00:03;;;;;;;4.63;3.40;;;;;11.60;97359.00;;;;5026016;28;20205;-69
2023/10/20 13:02:50;;;;;;;4.07;2.90;;;;;11.60;97366.00;;;;4995449;28;20228;-71
2023/10/20 13:05:37;;;;;;;4.00;2.77;;;;;11.60;97355.00;;;;5051071;28;20344;-74
2023/10/20 13:08:23;;;;;;;4.97;3.07;;;;;11.60;97371.00;;;;5022849;28;20225;-69
2023/10/20 13:11:11;;;;;;;4.87;3.47;;;;;11.50;97352.00;;;;5017556;28;20233;-71
2023/10/20 13:13:58;;;;;;;4.37;3.50;;;;;11.50;97357.00;;;;5018465;28;20416;-70
2023/10/20 13:16:46;;;;;;;3.90;2.93;;;;;11.60;97361.00;;;;5014773;28;20233;-70
2023/10/20 13:19:32;;;;;;;4.60;3.00;;;;;11.60;97350.00;;;;5023308;28;20246;-69
2023/10/20 13:22:19;;;;;;;3.53;2.80;;;;;11.60;97355.00;;;;5014663;28;20292;-70
2023/10/20 13:25:06;;;;;;;4.00;3.27;;;;;11.60;97365.00;;;;5037201;28;20225;-69
2023/10/20 13:27:53;;;;;;;3.23;2.90;;;;;11.60;97360.00;;;;5011890;28;20256;-71
2023/10/20 13:30:39;;;;;;;3.87;3.40;;;;;11.60;97365.00;;;;5025432;28;20237;-73
2023/10/20 13:33:27;;;;;;;7.53;4.57;;;;;11.60;97358.00;;;;5021584;28;20730;-68
2023/10/20 13:36:13;;;;;;;7.27;3.90;;;;;11.60;97360.00;;;;5021317;28;20241;-70
2023/10/20 13:39:02;;;;;;;3.83;3.43;;;;;11.60;97372.00;;;;5015737;28;20291;-71
2023/10/20 13:42:04;;;;;;;4.27;3.50;;;;;11.60;97374.00;;;;5021611;28;20661;-70
2023/10/20 13:44:50;;;;;;;5.03;4.00;;;;;11.60;97360.00;;;;5021698;28;20777;-71
2023/10/20 13:47:36;;;;;;;5.30;4.50;;;;;11.60;97358.00;;;;5012961;28;20233;-71
2023/10/20 13:50:24;;;;;;;4.43;4.03;;;;;11.60;97362.00;;;;5037445;28;20757;-71
2023/10/20 13:53:12;;;;;;;6.00;4.93;;;;;11.60;97359.00;;;;5025998;28;20313;-70
2023/10/20 13:56:00;;;;;;;5.83;5.10;;;;;11.70;97354.00;;;;5016997;28;20253;-70
2023/10/20 13:58:47;;;;;;;6.00;5.30;;;;;11.70;97345.00;;;;5023476;28;20288;-71
2023/10/20 14:01:33;;;;;;;5.60;4.10;;;;;11.70;97339.00;;;;5043219;28;20740;-72
2023/10/20 14:04:23;;;;;;;4.97;4.07;;;;;11.70;97342.00;;;;5041744;28;20225;-69
2023/10/20 14:07:11;;;;;;;5.20;4.00;;;;;11.80;97342.00;;;;5019683;28;20230;-70
2023/10/20 14:09:58;;;;;;;4.80;3.93;;;;;11.70;97338.00;;;;5017979;28;20238;-69
2023/10/20 14:12:44;;;;;;;4.70;3.83;;;;;11.60;97338.00;;;;5011561;28;20308;-70
2023/10/20 14:15:31;;;;;;;4.87;4.30;;;;;11.70;97337.00;;;;5019002;28;20224;-72